sensor_id;sensor_type;location;lat;lon;timestamp;P1;durP1;ratioP1;P2;durP2;ratioP2
56667;SDS011;42542;48.360;10.958;2023-03-01T00:01:25;25.57;;;9.43;;
56667;SDS011;42542;48.360;10.958;2023-03-01T00:04:29;26.95;;;9.43;;
56667;SDS011;42542;48.360;10.958;2023-03-01T00:07:31;26.17;;;9.57;;
56667;SDS011;42542;48.360;10.958;2023-03-01T00:10:32;27.15;;;9.93;;
56667;SDS011;42542;48.360;10.958;2023-03-01T00:13:34;22.52;;;9.70;;
56667;SDS011;42542;48.360;10.958;2023-03-01T00:16:37;27.45;;;10.10;;
56667;SDS011;42542;48.360;10.958;2023-03-01T00:19:41;27.10;;;9.80;;
56667;SDS011;42542;48.360;10.958;2023-03-01T00:22:45;23.23;;;9.43;;
56667;SDS011;42542;48.360;10.958;2023-03-01T00:25:46;25.52;;;9.95;;
56667;SDS011;42542;48.360;10.958;2023-03-01T00:28:48;24.30;;;9.40;;
56667;SDS011;42542;48.360;10.958;2023-03-01T00:31:50;28.83;;;9.90;;
56667;SDS011;42542;48.360;10.958;2023-03-01T00:34:52;23.08;;;9.85;;
56667;SDS011;42542;48.360;10.958;2023-03-01T00:37:57;22.83;;;9.07;;
56667;SDS011;42542;48.360;10.958;2023-03-01T00:41:03;23.98;;;9.73;;
56667;SDS011;42542;48.360;10.958;2023-03-01T00:44:06;25.42;;;9.60;;
56667;SDS011;42542;48.360;10.958;2023-03-01T00:47:09;23.15;;;9.32;;
56667;SDS011;42542;48.360;10.958;2023-03-01T00:50:11;26.08;;;9.73;;
56667;SDS011;42542;48.360;10.958;2023-03-01T00:53:15;23.83;;;9.10;;
56667;SDS011;42542;48.360;10.958;2023-03-01T00:56:17;25.40;;;9.85;;
56667;SDS011;42542;48.360;10.958;2023-03-01T00:59:20;27.90;;;10.18;;
56667;SDS011;42542;48.360;10.958;2023-03-01T01:02:23;25.47;;;9.63;;
56667;SDS011;42542;48.360;10.958;2023-03-01T01:05:25;25.58;;;9.18;;
56667;SDS011;42542;48.360;10.958;2023-03-01T01:08:28;25.83;;;9.52;;
56667;SDS011;42542;48.360;10.958;2023-03-01T01:11:30;24.02;;;9.55;;
56667;SDS011;42542;48.360;10.958;2023-03-01T01:14:32;31.30;;;10.07;;
56667;SDS011;42542;48.360;10.958;2023-03-01T01:17:34;23.40;;;9.50;;
56667;SDS011;42542;48.360;10.958;2023-03-01T01:20:36;25.13;;;9.82;;
56667;SDS011;42542;48.360;10.958;2023-03-01T01:23:39;23.97;;;9.80;;
56667;SDS011;42542;48.360;10.958;2023-03-01T01:26:42;23.08;;;9.80;;
56667;SDS011;42542;48.360;10.958;2023-03-01T01:29:44;24.63;;;10.27;;
56667;SDS011;42542;48.360;10.958;2023-03-01T01:32:47;24.63;;;9.50;;
56667;SDS011;42542;48.360;10.958;2023-03-01T01:35:50;25.27;;;9.75;;
56667;SDS011;42542;48.360;10.958;2023-03-01T01:38:51;26.52;;;9.95;;
56667;SDS011;42542;48.360;10.958;2023-03-01T01:41:54;26.60;;;10.10;;
56667;SDS011;42542;48.360;10.958;2023-03-01T01:45:42;24.20;;;9.95;;
56667;SDS011;42542;48.360;10.958;2023-03-01T01:48:43;23.02;;;9.65;;
56667;SDS011;42542;48.360;10.958;2023-03-01T01:51:51;23.60;;;9.70;;
56667;SDS011;42542;48.360;10.958;2023-03-01T01:55:09;25.43;;;9.97;;
56667;SDS011;42542;48.360;10.958;2023-03-01T01:58:25;27.60;;;9.60;;
56667;SDS011;42542;48.360;10.958;2023-03-01T02:01:30;28.50;;;10.18;;
56667;SDS011;42542;48.360;10.958;2023-03-01T02:04:32;23.20;;;8.90;;
56667;SDS011;42542;48.360;10.958;2023-03-01T02:07:35;24.10;;;9.90;;
56667;SDS011;42542;48.360;10.958;2023-03-01T02:10:40;28.42;;;9.98;;
56667;SDS011;42542;48.360;10.958;2023-03-01T02:13:46;24.80;;;9.63;;
56667;SDS011;42542;48.360;10.958;2023-03-01T02:16:49;23.45;;;9.68;;
56667;SDS011;42542;48.360;10.958;2023-03-01T02:23:28;24.67;;;9.68;;
56667;SDS011;42542;48.360;10.958;2023-03-01T02:26:36;24.07;;;9.43;;
56667;SDS011;42542;48.360;10.958;2023-03-01T02:29:51;25.58;;;10.13;;
56667;SDS011;42542;48.360;10.958;2023-03-01T02:32:58;23.55;;;9.02;;
56667;SDS011;42542;48.360;10.958;2023-03-01T02:36:08;25.20;;;9.80;;
56667;SDS011;42542;48.360;10.958;2023-03-01T02:39:18;23.50;;;9.13;;
56667;SDS011;42542;48.360;10.958;2023-03-01T02:42:26;23.00;;;9.45;;
56667;SDS011;42542;48.360;10.958;2023-03-01T02:45:31;24.25;;;9.15;;
56667;SDS011;42542;48.360;10.958;2023-03-01T02:48:40;24.27;;;9.60;;
56667;SDS011;42542;48.360;10.958;2023-03-01T02:55:45;26.40;;;9.65;;
56667;SDS011;42542;48.360;10.958;2023-03-01T02:58:48;25.90;;;9.73;;
56667;SDS011;42542;48.360;10.958;2023-03-01T03:01:54;26.25;;;9.93;;
56667;SDS011;42542;48.360;10.958;2023-03-01T03:04:56;28.13;;;9.88;;
56667;SDS011;42542;48.360;10.958;2023-03-01T03:08:00;25.67;;;9.90;;
56667;SDS011;42542;48.360;10.958;2023-03-01T03:11:07;27.02;;;9.80;;
56667;SDS011;42542;48.360;10.958;2023-03-01T03:14:10;26.90;;;9.63;;
56667;SDS011;42542;48.360;10.958;2023-03-01T03:17:15;26.20;;;9.65;;
56667;SDS011;42542;48.360;10.958;2023-03-01T03:20:18;26.15;;;9.40;;
56667;SDS011;42542;48.360;10.958;2023-03-01T03:23:23;24.88;;;9.82;;
56667;SDS011;42542;48.360;10.958;2023-03-01T03:26:27;25.52;;;9.57;;
56667;SDS011;42542;48.360;10.958;2023-03-01T03:29:29;26.17;;;9.37;;
56667;SDS011;42542;48.360;10.958;2023-03-01T03:32:32;29.30;;;10.18;;
56667;SDS011;42542;48.360;10.958;2023-03-01T03:35:37;27.63;;;10.50;;
56667;SDS011;42542;48.360;10.958;2023-03-01T03:38:41;24.50;;;8.90;;
56667;SDS011;42542;48.360;10.958;2023-03-01T03:41:42;23.25;;;9.85;;
56667;SDS011;42542;48.360;10.958;2023-03-01T03:44:44;28.20;;;9.32;;
56667;SDS011;42542;48.360;10.958;2023-03-01T03:47:48;26.10;;;10.60;;
56667;SDS011;42542;48.360;10.958;2023-03-01T03:50:53;26.02;;;9.52;;
56667;SDS011;42542;48.360;10.958;2023-03-01T03:53:57;26.10;;;10.45;;
56667;SDS011;42542;48.360;10.958;2023-03-01T03:56:59;24.75;;;9.80;;
56667;SDS011;42542;48.360;10.958;2023-03-01T04:00:01;29.43;;;10.23;;
56667;SDS011;42542;48.360;10.958;2023-03-01T04:03:13;24.35;;;9.70;;
56667;SDS011;42542;48.360;10.958;2023-03-01T04:06:16;24.08;;;9.00;;
56667;SDS011;42542;48.360;10.958;2023-03-01T04:09:18;25.93;;;9.80;;
56667;SDS011;42542;48.360;10.958;2023-03-01T04:12:21;26.33;;;10.43;;
56667;SDS011;42542;48.360;10.958;2023-03-01T04:15:24;26.48;;;10.13;;
56667;SDS011;42542;48.360;10.958;2023-03-01T04:18:28;25.23;;;8.90;;
56667;SDS011;42542;48.360;10.958;2023-03-01T04:21:30;28.50;;;9.98;;
56667;SDS011;42542;48.360;10.958;2023-03-01T04:24:33;25.85;;;9.90;;
56667;SDS011;42542;48.360;10.958;2023-03-01T04:27:35;29.50;;;9.80;;
56667;SDS011;42542;48.360;10.958;2023-03-01T04:30:39;25.80;;;9.50;;
56667;SDS011;42542;48.360;10.958;2023-03-01T04:33:47;26.30;;;10.13;;
56667;SDS011;42542;48.360;10.958;2023-03-01T04:36:52;24.60;;;9.88;;
56667;SDS011;42542;48.360;10.958;2023-03-01T04:39:54;26.07;;;10.03;;
56667;SDS011;42542;48.360;10.958;2023-03-01T04:42:56;28.85;;;10.25;;
56667;SDS011;42542;48.360;10.958;2023-03-01T04:46:02;26.73;;;9.75;;
56667;SDS011;42542;48.360;10.958;2023-03-01T04:49:07;25.15;;;10.57;;
56667;SDS011;42542;48.360;10.958;2023-03-01T04:52:09;28.17;;;9.88;;
56667;SDS011;42542;48.360;10.958;2023-03-01T04:55:11;25.27;;;10.10;;
56667;SDS011;42542;48.360;10.958;2023-03-01T04:58:13;29.52;;;10.40;;
56667;SDS011;42542;48.360;10.958;2023-03-01T05:01:20;27.10;;;9.70;;
56667;SDS011;42542;48.360;10.958;2023-03-01T05:04:23;26.35;;;9.75;;
56667;SDS011;42542;48.360;10.958;2023-03-01T05:07:26;26.88;;;9.88;;
56667;SDS011;42542;48.360;10.958;2023-03-01T05:10:29;27.50;;;10.40;;
56667;SDS011;42542;48.360;10.958;2023-03-01T05:13:32;27.58;;;9.68;;
56667;SDS011;42542;48.360;10.958;2023-03-01T05:16:36;33.03;;;10.85;;
56667;SDS011;42542;48.360;10.958;2023-03-01T05:19:38;27.67;;;9.77;;
56667;SDS011;42542;48.360;10.958;2023-03-01T05:22:40;24.45;;;9.70;;
56667;SDS011;42542;48.360;10.958;2023-03-01T05:25:41;26.10;;;9.73;;
56667;SDS011;42542;48.360;10.958;2023-03-01T05:28:45;27.58;;;10.80;;
56667;SDS011;42542;48.360;10.958;2023-03-01T05:31:48;28.57;;;9.70;;
56667;SDS011;42542;48.360;10.958;2023-03-01T05:34:51;27.17;;;9.80;;
56667;SDS011;42542;48.360;10.958;2023-03-01T05:37:54;25.92;;;9.95;;
56667;SDS011;42542;48.360;10.958;2023-03-01T05:40:57;27.40;;;10.00;;
56667;SDS011;42542;48.360;10.958;2023-03-01T05:44:00;26.10;;;10.18;;
56667;SDS011;42542;48.360;10.958;2023-03-01T05:47:03;28.30;;;10.77;;
56667;SDS011;42542;48.360;10.958;2023-03-01T05:50:05;26.92;;;10.27;;
56667;SDS011;42542;48.360;10.958;2023-03-01T05:53:12;28.35;;;10.70;;
56667;SDS011;42542;48.360;10.958;2023-03-01T05:56:16;25.58;;;10.18;;
56667;SDS011;42542;48.360;10.958;2023-03-01T05:59:19;28.23;;;10.38;;
56667;SDS011;42542;48.360;10.958;2023-03-01T06:02:23;27.97;;;9.87;;
56667;SDS011;42542;48.360;10.958;2023-03-01T06:05:26;26.45;;;10.13;;
56667;SDS011;42542;48.360;10.958;2023-03-01T06:08:29;26.70;;;9.65;;
56667;SDS011;42542;48.360;10.958;2023-03-01T06:11:36;28.80;;;10.20;;
56667;SDS011;42542;48.360;10.958;2023-03-01T06:14:38;30.80;;;10.32;;
56667;SDS011;42542;48.360;10.958;2023-03-01T06:17:41;30.92;;;10.38;;
56667;SDS011;42542;48.360;10.958;2023-03-01T06:20:45;29.35;;;11.15;;
56667;SDS011;42542;48.360;10.958;2023-03-01T06:23:47;26.80;;;10.02;;
56667;SDS011;42542;48.360;10.958;2023-03-01T06:26:50;31.33;;;10.02;;
56667;SDS011;42542;48.360;10.958;2023-03-01T06:29:51;29.90;;;10.63;;
56667;SDS011;42542;48.360;10.958;2023-03-01T06:32:53;26.77;;;9.63;;
56667;SDS011;42542;48.360;10.958;2023-03-01T06:36:02;28.85;;;10.48;;
56667;SDS011;42542;48.360;10.958;2023-03-01T06:39:06;28.77;;;10.20;;
56667;SDS011;42542;48.360;10.958;2023-03-01T06:42:08;28.80;;;10.83;;
56667;SDS011;42542;48.360;10.958;2023-03-01T06:45:11;28.20;;;10.98;;
56667;SDS011;42542;48.360;10.958;2023-03-01T06:48:13;27.60;;;10.02;;
56667;SDS011;42542;48.360;10.958;2023-03-01T06:51:15;28.35;;;9.80;;
56667;SDS011;42542;48.360;10.958;2023-03-01T06:54:18;28.40;;;10.43;;
56667;SDS011;42542;48.360;10.958;2023-03-01T06:57:20;25.75;;;10.20;;
56667;SDS011;42542;48.360;10.958;2023-03-01T07:00:24;30.02;;;10.90;;
56667;SDS011;42542;48.360;10.958;2023-03-01T07:03:27;29.40;;;10.57;;
56667;SDS011;42542;48.360;10.958;2023-03-01T07:06:30;26.83;;;10.68;;
56667;SDS011;42542;48.360;10.958;2023-03-01T07:09:32;28.02;;;10.13;;
56667;SDS011;42542;48.360;10.958;2023-03-01T07:12:36;28.37;;;10.30;;
56667;SDS011;42542;48.360;10.958;2023-03-01T07:15:39;29.00;;;11.02;;
56667;SDS011;42542;48.360;10.958;2023-03-01T07:18:43;29.60;;;10.10;;
56667;SDS011;42542;48.360;10.958;2023-03-01T07:21:44;25.77;;;9.95;;
56667;SDS011;42542;48.360;10.958;2023-03-01T07:24:47;26.92;;;10.25;;
56667;SDS011;42542;48.360;10.958;2023-03-01T07:27:51;29.33;;;10.95;;
56667;SDS011;42542;48.360;10.958;2023-03-01T07:30:58;27.98;;;10.93;;
56667;SDS011;42542;48.360;10.958;2023-03-01T07:34:02;27.80;;;10.33;;
56667;SDS011;42542;48.360;10.958;2023-03-01T07:37:05;28.80;;;10.10;;
56667;SDS011;42542;48.360;10.958;2023-03-01T07:40:07;28.08;;;10.05;;
56667;SDS011;42542;48.360;10.958;2023-03-01T07:43:11;30.53;;;10.87;;
56667;SDS011;42542;48.360;10.958;2023-03-01T07:46:12;28.23;;;9.77;;
56667;SDS011;42542;48.360;10.958;2023-03-01T07:49:14;27.80;;;9.88;;
56667;SDS011;42542;48.360;10.958;2023-03-01T07:52:16;30.23;;;10.85;;
56667;SDS011;42542;48.360;10.958;2023-03-01T07:55:18;26.58;;;10.73;;
56667;SDS011;42542;48.360;10.958;2023-03-01T07:58:21;26.33;;;9.85;;
56667;SDS011;42542;48.360;10.958;2023-03-01T08:01:24;28.27;;;9.75;;
56667;SDS011;42542;48.360;10.958;2023-03-01T08:04:25;27.67;;;10.13;;
56667;SDS011;42542;48.360;10.958;2023-03-01T08:07:28;28.80;;;9.98;;
56667;SDS011;42542;48.360;10.958;2023-03-01T08:10:30;29.50;;;10.25;;
56667;SDS011;42542;48.360;10.958;2023-03-01T08:13:33;28.93;;;10.30;;
56667;SDS011;42542;48.360;10.958;2023-03-01T08:16:36;29.02;;;10.98;;
56667;SDS011;42542;48.360;10.958;2023-03-01T08:19:38;26.23;;;10.05;;
56667;SDS011;42542;48.360;10.958;2023-03-01T08:22:41;28.20;;;10.45;;
56667;SDS011;42542;48.360;10.958;2023-03-01T08:25:42;27.27;;;10.65;;
56667;SDS011;42542;48.360;10.958;2023-03-01T08:28:45;27.02;;;9.75;;
56667;SDS011;42542;48.360;10.958;2023-03-01T08:31:52;29.13;;;10.70;;
56667;SDS011;42542;48.360;10.958;2023-03-01T08:34:55;29.27;;;10.47;;
56667;SDS011;42542;48.360;10.958;2023-03-01T08:37:57;28.40;;;10.73;;
56667;SDS011;42542;48.360;10.958;2023-03-01T08:41:00;29.92;;;10.27;;
56667;SDS011;42542;48.360;10.958;2023-03-01T08:44:02;26.87;;;10.07;;
56667;SDS011;42542;48.360;10.958;2023-03-01T08:47:06;30.52;;;10.40;;
56667;SDS011;42542;48.360;10.958;2023-03-01T08:50:08;26.88;;;9.90;;
56667;SDS011;42542;48.360;10.958;2023-03-01T08:53:10;28.63;;;10.73;;
56667;SDS011;42542;48.360;10.958;2023-03-01T08:56:12;28.88;;;10.20;;
56667;SDS011;42542;48.360;10.958;2023-03-01T08:59:16;29.33;;;10.63;;
56667;SDS011;42542;48.360;10.958;2023-03-01T09:02:18;29.75;;;11.30;;
56667;SDS011;42542;48.360;10.958;2023-03-01T09:05:21;28.57;;;11.03;;
56667;SDS011;42542;48.360;10.958;2023-03-01T09:08:22;27.95;;;10.77;;
56667;SDS011;42542;48.360;10.958;2023-03-01T09:11:26;27.00;;;10.50;;
56667;SDS011;42542;48.360;10.958;2023-03-01T09:14:30;26.83;;;9.80;;
56667;SDS011;42542;48.360;10.958;2023-03-01T09:17:33;28.67;;;10.43;;
56667;SDS011;42542;48.360;10.958;2023-03-01T09:20:36;28.92;;;10.82;;
56667;SDS011;42542;48.360;10.958;2023-03-01T09:23:45;28.98;;;10.43;;
56667;SDS011;42542;48.360;10.958;2023-03-01T09:26:48;25.85;;;9.70;;
56667;SDS011;42542;48.360;10.958;2023-03-01T09:29:53;30.02;;;10.07;;
56667;SDS011;42542;48.360;10.958;2023-03-01T09:32:58;26.95;;;10.65;;
56667;SDS011;42542;48.360;10.958;2023-03-01T09:36:03;32.37;;;11.37;;
56667;SDS011;42542;48.360;10.958;2023-03-01T09:39:07;29.13;;;10.05;;
56667;SDS011;42542;48.360;10.958;2023-03-01T09:42:11;29.50;;;11.13;;
56667;SDS011;42542;48.360;10.958;2023-03-01T09:45:21;27.67;;;9.73;;
56667;SDS011;42542;48.360;10.958;2023-03-01T09:48:33;30.83;;;10.90;;
56667;SDS011;42542;48.360;10.958;2023-03-01T09:51:43;30.83;;;10.57;;
56667;SDS011;42542;48.360;10.958;2023-03-01T09:54:57;25.20;;;10.38;;
56667;SDS011;42542;48.360;10.958;2023-03-01T10:11:17;27.63;;;11.18;;
56667;SDS011;42542;48.360;10.958;2023-03-01T10:18:00;29.03;;;10.13;;
56667;SDS011;42542;48.360;10.958;2023-03-01T10:21:14;27.88;;;11.10;;
56667;SDS011;42542;48.360;10.958;2023-03-01T10:24:18;28.88;;;10.85;;
56667;SDS011;42542;48.360;10.958;2023-03-01T10:30:38;25.98;;;10.10;;
56667;SDS011;42542;48.360;10.958;2023-03-01T10:33:43;27.23;;;10.93;;
56667;SDS011;42542;48.360;10.958;2023-03-01T10:36:50;30.83;;;11.18;;
56667;SDS011;42542;48.360;10.958;2023-03-01T10:40:04;26.60;;;10.20;;
56667;SDS011;42542;48.360;10.958;2023-03-01T10:43:10;27.52;;;10.80;;
56667;SDS011;42542;48.360;10.958;2023-03-01T10:46:24;28.40;;;10.80;;
56667;SDS011;42542;48.360;10.958;2023-03-01T10:49:32;28.87;;;11.27;;
56667;SDS011;42542;48.360;10.958;2023-03-01T10:52:35;28.60;;;11.10;;
56667;SDS011;42542;48.360;10.958;2023-03-01T10:55:39;27.30;;;10.80;;
56667;SDS011;42542;48.360;10.958;2023-03-01T10:58:56;32.55;;;13.10;;
56667;SDS011;42542;48.360;10.958;2023-03-01T11:02:14;28.58;;;10.68;;
56667;SDS011;42542;48.360;10.958;2023-03-01T11:05:28;29.15;;;11.75;;
56667;SDS011;42542;48.360;10.958;2023-03-01T11:08:36;29.65;;;11.20;;
56667;SDS011;42542;48.360;10.958;2023-03-01T11:11:57;30.60;;;11.20;;
56667;SDS011;42542;48.360;10.958;2023-03-01T11:15:02;29.05;;;11.18;;
56667;SDS011;42542;48.360;10.958;2023-03-01T11:18:04;27.75;;;10.80;;
56667;SDS011;42542;48.360;10.958;2023-03-01T11:21:16;29.00;;;11.33;;
56667;SDS011;42542;48.360;10.958;2023-03-01T11:24:17;29.52;;;11.27;;
56667;SDS011;42542;48.360;10.958;2023-03-01T11:27:23;30.25;;;11.65;;
56667;SDS011;42542;48.360;10.958;2023-03-01T11:30:38;29.35;;;11.43;;
56667;SDS011;42542;48.360;10.958;2023-03-01T11:37:03;27.73;;;10.82;;
56667;SDS011;42542;48.360;10.958;2023-03-01T11:40:27;25.70;;;10.50;;
56667;SDS011;42542;48.360;10.958;2023-03-01T11:43:52;25.70;;;10.33;;
56667;SDS011;42542;48.360;10.958;2023-03-01T11:57:07;28.77;;;11.25;;
56667;SDS011;42542;48.360;10.958;2023-03-01T12:10:56;28.40;;;11.23;;
56667;SDS011;42542;48.360;10.958;2023-03-01T12:38:22;25.63;;;10.27;;
56667;SDS011;42542;48.360;10.958;2023-03-01T12:52:03;23.60;;;9.57;;
56667;SDS011;42542;48.360;10.958;2023-03-01T13:02:41;25.13;;;10.67;;
56667;SDS011;42542;48.360;10.958;2023-03-01T13:09:43;26.58;;;10.20;;
56667;SDS011;42542;48.360;10.958;2023-03-01T13:16:19;30.95;;;10.50;;
56667;SDS011;42542;48.360;10.958;2023-03-01T13:19:41;24.17;;;9.73;;
56667;SDS011;42542;48.360;10.958;2023-03-01T13:23:04;26.33;;;9.73;;
56667;SDS011;42542;48.360;10.958;2023-03-01T13:26:15;27.20;;;10.30;;
56667;SDS011;42542;48.360;10.958;2023-03-01T13:29:25;24.38;;;10.18;;
56667;SDS011;42542;48.360;10.958;2023-03-01T13:32:32;25.90;;;10.45;;
56667;SDS011;42542;48.360;10.958;2023-03-01T13:35:44;25.67;;;10.07;;
56667;SDS011;42542;48.360;10.958;2023-03-01T13:38:48;24.17;;;10.32;;
56667;SDS011;42542;48.360;10.958;2023-03-01T13:41:57;27.48;;;10.50;;
56667;SDS011;42542;48.360;10.958;2023-03-01T13:45:03;25.80;;;10.02;;
56667;SDS011;42542;48.360;10.958;2023-03-01T13:48:17;25.52;;;9.60;;
56667;SDS011;42542;48.360;10.958;2023-03-01T13:51:26;25.35;;;10.13;;
56667;SDS011;42542;48.360;10.958;2023-03-01T13:54:34;24.73;;;9.75;;
56667;SDS011;42542;48.360;10.958;2023-03-01T13:57:37;22.73;;;9.47;;
56667;SDS011;42542;48.360;10.958;2023-03-01T14:00:42;24.10;;;9.70;;
56667;SDS011;42542;48.360;10.958;2023-03-01T14:03:44;25.23;;;9.90;;
56667;SDS011;42542;48.360;10.958;2023-03-01T14:06:46;24.13;;;10.00;;
56667;SDS011;42542;48.360;10.958;2023-03-01T14:09:50;25.25;;;9.98;;
56667;SDS011;42542;48.360;10.958;2023-03-01T14:13:20;20.55;;;8.65;;
56667;SDS011;42542;48.360;10.958;2023-03-01T14:16:46;23.90;;;9.27;;
56667;SDS011;42542;48.360;10.958;2023-03-01T14:19:59;23.17;;;9.48;;
56667;SDS011;42542;48.360;10.958;2023-03-01T14:23:13;27.45;;;9.77;;
56667;SDS011;42542;48.360;10.958;2023-03-01T14:26:25;21.75;;;9.30;;
56667;SDS011;42542;48.360;10.958;2023-03-01T14:29:33;22.93;;;9.63;;
56667;SDS011;42542;48.360;10.958;2023-03-01T14:32:37;26.02;;;10.23;;
56667;SDS011;42542;48.360;10.958;2023-03-01T14:35:40;23.95;;;9.35;;
56667;SDS011;42542;48.360;10.958;2023-03-01T14:38:44;23.60;;;9.57;;
56667;SDS011;42542;48.360;10.958;2023-03-01T14:41:49;23.13;;;9.20;;
56667;SDS011;42542;48.360;10.958;2023-03-01T14:44:52;23.80;;;9.52;;
56667;SDS011;42542;48.360;10.958;2023-03-01T14:48:01;23.77;;;9.45;;
56667;SDS011;42542;48.360;10.958;2023-03-01T14:51:05;24.98;;;9.48;;
56667;SDS011;42542;48.360;10.958;2023-03-01T14:54:18;22.67;;;9.15;;
56667;SDS011;42542;48.360;10.958;2023-03-01T14:57:24;22.30;;;9.05;;
56667;SDS011;42542;48.360;10.958;2023-03-01T15:00:28;26.87;;;10.53;;
56667;SDS011;42542;48.360;10.958;2023-03-01T15:03:36;22.52;;;9.38;;
56667;SDS011;42542;48.360;10.958;2023-03-01T15:06:41;22.65;;;9.57;;
56667;SDS011;42542;48.360;10.958;2023-03-01T15:09:43;24.43;;;9.83;;
56667;SDS011;42542;48.360;10.958;2023-03-01T15:12:45;24.13;;;9.82;;
56667;SDS011;42542;48.360;10.958;2023-03-01T15:15:47;23.17;;;9.82;;
56667;SDS011;42542;48.360;10.958;2023-03-01T15:19:00;21.52;;;9.43;;
56667;SDS011;42542;48.360;10.958;2023-03-01T15:22:12;24.08;;;9.85;;
56667;SDS011;42542;48.360;10.958;2023-03-01T15:25:18;22.88;;;8.93;;
56667;SDS011;42542;48.360;10.958;2023-03-01T15:28:23;21.85;;;9.23;;
56667;SDS011;42542;48.360;10.958;2023-03-01T15:31:32;23.07;;;9.27;;
56667;SDS011;42542;48.360;10.958;2023-03-01T15:34:40;23.90;;;9.45;;
56667;SDS011;42542;48.360;10.958;2023-03-01T15:37:45;23.70;;;9.70;;
56667;SDS011;42542;48.360;10.958;2023-03-01T15:40:50;23.57;;;9.60;;
56667;SDS011;42542;48.360;10.958;2023-03-01T15:43:52;23.00;;;9.05;;
56667;SDS011;42542;48.360;10.958;2023-03-01T15:47:00;21.45;;;9.18;;
56667;SDS011;42542;48.360;10.958;2023-03-01T15:50:04;23.50;;;10.20;;
56667;SDS011;42542;48.360;10.958;2023-03-01T15:53:11;23.38;;;10.70;;
56667;SDS011;42542;48.360;10.958;2023-03-01T15:56:15;24.60;;;10.40;;
56667;SDS011;42542;48.360;10.958;2023-03-01T15:59:17;24.55;;;9.77;;
56667;SDS011;42542;48.360;10.958;2023-03-01T16:02:21;21.80;;;9.37;;
56667;SDS011;42542;48.360;10.958;2023-03-01T16:05:27;21.67;;;9.10;;
56667;SDS011;42542;48.360;10.958;2023-03-01T16:08:33;20.83;;;8.68;;
56667;SDS011;42542;48.360;10.958;2023-03-01T16:11:37;21.87;;;9.43;;
56667;SDS011;42542;48.360;10.958;2023-03-01T16:14:40;22.95;;;9.38;;
56667;SDS011;42542;48.360;10.958;2023-03-01T16:17:43;24.02;;;9.75;;
56667;SDS011;42542;48.360;10.958;2023-03-01T16:20:51;24.00;;;10.98;;
56667;SDS011;42542;48.360;10.958;2023-03-01T16:23:55;37.97;;;15.40;;
56667;SDS011;42542;48.360;10.958;2023-03-01T16:26:59;27.27;;;10.95;;
56667;SDS011;42542;48.360;10.958;2023-03-01T16:30:02;22.92;;;9.15;;
56667;SDS011;42542;48.360;10.958;2023-03-01T16:33:06;25.50;;;9.10;;
56667;SDS011;42542;48.360;10.958;2023-03-01T16:36:29;23.77;;;9.85;;
56667;SDS011;42542;48.360;10.958;2023-03-01T16:39:32;23.13;;;9.40;;
56667;SDS011;42542;48.360;10.958;2023-03-01T16:42:35;21.97;;;9.43;;
56667;SDS011;42542;48.360;10.958;2023-03-01T16:45:42;24.83;;;9.60;;
56667;SDS011;42542;48.360;10.958;2023-03-01T16:48:47;24.00;;;9.68;;
56667;SDS011;42542;48.360;10.958;2023-03-01T16:51:50;22.90;;;8.98;;
56667;SDS011;42542;48.360;10.958;2023-03-01T16:54:52;20.98;;;8.68;;
56667;SDS011;42542;48.360;10.958;2023-03-01T16:57:53;23.13;;;10.05;;
56667;SDS011;42542;48.360;10.958;2023-03-01T17:00:56;25.15;;;9.45;;
56667;SDS011;42542;48.360;10.958;2023-03-01T17:03:59;24.03;;;9.70;;
56667;SDS011;42542;48.360;10.958;2023-03-01T17:07:02;21.38;;;9.20;;
56667;SDS011;42542;48.360;10.958;2023-03-01T17:10:05;26.20;;;9.63;;
56667;SDS011;42542;48.360;10.958;2023-03-01T17:13:11;23.20;;;9.53;;
56667;SDS011;42542;48.360;10.958;2023-03-01T17:16:14;23.48;;;9.30;;
56667;SDS011;42542;48.360;10.958;2023-03-01T17:19:18;24.90;;;10.27;;
56667;SDS011;42542;48.360;10.958;2023-03-01T17:22:21;24.02;;;9.60;;
56667;SDS011;42542;48.360;10.958;2023-03-01T17:25:23;23.83;;;9.38;;
56667;SDS011;42542;48.360;10.958;2023-03-01T17:28:26;24.77;;;9.50;;
56667;SDS011;42542;48.360;10.958;2023-03-01T17:31:31;26.98;;;9.82;;
56667;SDS011;42542;48.360;10.958;2023-03-01T17:34:35;25.13;;;10.20;;
56667;SDS011;42542;48.360;10.958;2023-03-01T17:37:38;25.55;;;10.50;;
56667;SDS011;42542;48.360;10.958;2023-03-01T17:40:46;28.52;;;10.13;;
56667;SDS011;42542;48.360;10.958;2023-03-01T17:43:48;24.93;;;9.33;;
56667;SDS011;42542;48.360;10.958;2023-03-01T17:46:51;29.02;;;9.82;;
56667;SDS011;42542;48.360;10.958;2023-03-01T17:49:53;26.58;;;10.30;;
56667;SDS011;42542;48.360;10.958;2023-03-01T17:52:54;25.35;;;10.45;;
56667;SDS011;42542;48.360;10.958;2023-03-01T17:56:01;24.45;;;10.65;;
56667;SDS011;42542;48.360;10.958;2023-03-01T17:59:05;27.85;;;11.25;;
56667;SDS011;42542;48.360;10.958;2023-03-01T18:02:09;29.55;;;11.07;;
56667;SDS011;42542;48.360;10.958;2023-03-01T18:05:13;28.47;;;12.40;;
56667;SDS011;42542;48.360;10.958;2023-03-01T18:08:14;26.92;;;11.07;;
56667;SDS011;42542;48.360;10.958;2023-03-01T18:11:17;28.52;;;10.57;;
56667;SDS011;42542;48.360;10.958;2023-03-01T18:14:19;30.80;;;10.97;;
56667;SDS011;42542;48.360;10.958;2023-03-01T18:17:22;28.42;;;11.23;;
56667;SDS011;42542;48.360;10.958;2023-03-01T18:20:25;28.88;;;10.85;;
56667;SDS011;42542;48.360;10.958;2023-03-01T18:23:32;29.67;;;11.60;;
56667;SDS011;42542;48.360;10.958;2023-03-01T18:26:36;31.77;;;11.70;;
56667;SDS011;42542;48.360;10.958;2023-03-01T18:29:40;30.08;;;11.82;;
56667;SDS011;42542;48.360;10.958;2023-03-01T18:32:45;30.77;;;11.80;;
56667;SDS011;42542;48.360;10.958;2023-03-01T18:35:47;33.87;;;12.53;;
56667;SDS011;42542;48.360;10.958;2023-03-01T18:38:50;34.20;;;13.27;;
56667;SDS011;42542;48.360;10.958;2023-03-01T18:41:57;34.20;;;12.60;;
56667;SDS011;42542;48.360;10.958;2023-03-01T18:45:01;33.73;;;13.73;;
56667;SDS011;42542;48.360;10.958;2023-03-01T18:48:03;30.70;;;12.55;;
56667;SDS011;42542;48.360;10.958;2023-03-01T18:51:08;38.90;;;14.05;;
56667;SDS011;42542;48.360;10.958;2023-03-01T18:54:15;32.33;;;12.77;;
56667;SDS011;42542;48.360;10.958;2023-03-01T18:57:17;32.50;;;13.07;;
56667;SDS011;42542;48.360;10.958;2023-03-01T19:00:20;29.02;;;11.93;;
56667;SDS011;42542;48.360;10.958;2023-03-01T19:03:22;30.92;;;12.50;;
56667;SDS011;42542;48.360;10.958;2023-03-01T19:06:29;30.43;;;11.53;;
56667;SDS011;42542;48.360;10.958;2023-03-01T19:09:34;31.48;;;13.05;;
56667;SDS011;42542;48.360;10.958;2023-03-01T19:12:36;31.05;;;12.50;;
56667;SDS011;42542;48.360;10.958;2023-03-01T19:15:39;30.07;;;12.13;;
56667;SDS011;42542;48.360;10.958;2023-03-01T19:18:43;29.52;;;12.13;;
56667;SDS011;42542;48.360;10.958;2023-03-01T19:21:51;30.08;;;12.25;;
56667;SDS011;42542;48.360;10.958;2023-03-01T19:25:06;29.58;;;11.82;;
56667;SDS011;42542;48.360;10.958;2023-03-01T19:28:11;28.02;;;11.43;;
56667;SDS011;42542;48.360;10.958;2023-03-01T19:31:22;29.40;;;11.10;;
56667;SDS011;42542;48.360;10.958;2023-03-01T19:34:27;28.08;;;10.98;;
56667;SDS011;42542;48.360;10.958;2023-03-01T19:37:33;30.37;;;11.90;;